Main page
METAR-TAF:

METAR-TAF

Airports :

Austin Executive Airport

Austin, Texas, United States

latitude: 30-24-00N, longitude: 097-34-25W, elevation: 620 ft

Current weather observation

The report was made 36 minutes ago, at 16:35 UTC
Wind 12 mph from the East
Temperature 81°F
Humidity 84%
Pressure 29.98 in. Hg
Visibility: 8 miles
Broken clouds at a height of 2000 ft
Overcast at a height of 2600 ft

METAR: KEDC 191635Z AUTO 08010KT 8SM BKN020 OVC026 27/24 A2998 RMK AO2

Time: 11:11 (17:11 UTC)


TAF: missing

Weather observations and forecasts of more than 4000 airports (METAR and TAF reports).

The available stations are represented by yellow and red dots on the map.

Hover mouse over dot to see the name of the station.

Then click to see weather observations and forecasts.

To change the map : click on the green buttons with a black cross to zoom in, on the green button with a dash to zoom out, or on the green arrows for adjacent maps.


METAR-TAF: